createdAt,value
2022-08-06T00:02:11.813Z,70.99
2022-08-06T00:04:40.418Z,70.02
2022-08-06T00:07:10.879Z,69.24
2022-08-06T00:09:56.336Z,67.44
2022-08-06T00:12:29.663Z,65.89
2022-08-06T00:14:58.835Z,64.35
2022-08-06T00:17:31.710Z,60.23
2022-08-06T00:20:01.522Z,57.30
2022-08-06T00:22:29.783Z,56.43
2022-08-06T00:24:58.606Z,56.36
2022-08-06T00:27:29.135Z,57.06
2022-08-06T00:30:05.880Z,57.29
2022-08-06T00:32:34.613Z,58.53
2022-08-06T00:35:02.854Z,62.47
2022-08-06T00:37:57.661Z,67.26
2022-08-06T00:40:24.245Z,66.21
2022-08-06T00:42:54.616Z,61.95
2022-08-06T00:45:23.851Z,59.35
2022-08-06T00:48:02.727Z,55.58
2022-08-06T00:50:32.288Z,54.49
2022-08-06T00:53:01.421Z,54.66
2022-08-06T00:55:36.589Z,54.15
2022-08-06T00:58:13.041Z,59.00
2022-08-06T01:00:45.414Z,59.81
2022-08-06T01:03:41.251Z,59.97
2022-08-06T01:06:53.734Z,67.14
2022-08-06T01:08:55.339Z,68.40
2022-08-06T01:11:23.180Z,64.35
2022-08-06T01:14:03.228Z,61.34
2022-08-06T01:16:50.933Z,62.10
2022-08-06T01:21:20.842Z,59.32
2022-08-06T01:22:31.398Z,59.00
2022-08-06T01:25:00.801Z,59.76
2022-08-06T01:27:37.566Z,59.95
2022-08-06T01:30:25.006Z,58.59
2022-08-06T01:32:53.334Z,58.23
2022-08-06T01:35:47.671Z,63.77
2022-08-06T01:38:18.861Z,69.39
2022-08-06T01:40:51.850Z,66.55
2022-08-06T01:44:04.977Z,64.52
2022-08-06T01:46:09.613Z,62.62
2022-08-06T01:48:40.386Z,61.83
2022-08-06T01:52:10.841Z,60.81
2022-08-06T01:54:06.424Z,57.82
2022-08-06T01:56:56.764Z,56.75
2022-08-06T01:59:48.362Z,60.37
2022-08-06T02:02:19.119Z,57.83
2022-08-06T02:05:02.852Z,62.19
2022-08-06T02:08:37.165Z,67.61
2022-08-06T02:10:30.774Z,65.38
2022-08-06T02:13:02.778Z,63.62
2022-08-06T02:15:58.830Z,62.26
2022-08-06T02:18:34.030Z,59.69
2022-08-06T02:21:18.586Z,58.15
2022-08-06T02:23:50.446Z,58.26
2022-08-06T02:26:19.925Z,59.64
2022-08-06T02:28:50.385Z,59.16
2022-08-06T02:31:22.510Z,63.05
2022-08-06T02:34:03.358Z,68.14
2022-08-06T02:36:53.441Z,66.86
2022-08-06T02:39:22.129Z,64.26
2022-08-06T02:42:07.459Z,62.12
2022-08-06T02:44:53.815Z,61.08
2022-08-06T02:47:52.750Z,59.45
2022-08-06T02:50:22.514Z,61.01
2022-08-06T02:52:59.879Z,64.63
2022-08-06T02:55:34.379Z,66.87
2022-08-06T02:58:07.827Z,63.86
2022-08-06T03:00:40.286Z,62.61
2022-08-06T03:03:21.751Z,62.99
2022-08-06T03:06:06.840Z,61.57
2022-08-06T03:08:37.245Z,61.77
2022-08-06T03:11:06.881Z,58.50
2022-08-06T03:13:36.210Z,59.21
2022-08-06T03:16:22.898Z,61.79
2022-08-06T03:19:54.675Z,66.87
2022-08-06T03:21:42.597Z,62.54
2022-08-06T03:24:19.554Z,62.35
2022-08-06T03:26:49.391Z,61.10
2022-08-06T03:29:17.454Z,62.03
2022-08-06T03:31:58.288Z,59.81
2022-08-06T03:34:29.522Z,61.81
2022-08-06T03:36:58.310Z,64.84
2022-08-06T03:39:30.140Z,63.27
2022-08-06T03:42:08.782Z,63.33
2022-08-06T03:44:38.824Z,61.10
2022-08-06T03:47:14.846Z,60.86
2022-08-06T03:49:46.709Z,60.98
2022-08-06T03:52:29.425Z,60.75
2022-08-06T03:55:04.291Z,60.59
2022-08-06T03:57:49.832Z,60.59
2022-08-06T04:00:28.153Z,60.28
2022-08-06T04:02:58.163Z,61.35
2022-08-06T04:05:33.000Z,61.33
2022-08-06T04:08:03.433Z,61.39
2022-08-06T04:10:57.166Z,61.34
2022-08-06T04:13:38.138Z,61.38
2022-08-06T04:16:29.994Z,60.59
2022-08-06T04:19:04.391Z,61.67
2022-08-06T04:23:04.977Z,61.28
2022-08-06T04:24:20.325Z,60.36
2022-08-06T04:26:53.415Z,60.05
2022-08-06T04:29:23.360Z,59.86
2022-08-06T04:32:19.168Z,62.65
2022-08-06T04:36:03.797Z,63.06
2022-08-06T04:37:38.811Z,59.79
2022-08-06T04:40:14.937Z,58.11
2022-08-06T04:42:45.841Z,60.28
2022-08-06T04:46:15.771Z,64.12
2022-08-06T04:48:04.059Z,64.10
2022-08-06T04:50:36.829Z,61.97
2022-08-06T04:53:30.130Z,60.22
2022-08-06T04:56:04.809Z,58.91
2022-08-06T04:58:33.445Z,61.41
2022-08-06T05:01:10.772Z,64.13
2022-08-06T05:04:07.466Z,62.89
2022-08-06T05:06:34.708Z,60.91
2022-08-06T05:09:20.642Z,58.63
2022-08-06T05:12:14.247Z,61.09
2022-08-06T05:15:03.675Z,62.41
2022-08-06T05:17:37.998Z,60.60
2022-08-06T05:20:27.849Z,58.91
2022-08-06T05:23:04.098Z,60.00
2022-08-06T05:25:37.474Z,63.91
2022-08-06T05:28:10.278Z,62.86
2022-08-06T05:30:46.735Z,60.81
2022-08-06T05:33:29.766Z,58.70
2022-08-06T05:36:05.259Z,58.76
2022-08-06T05:38:37.933Z,62.72
2022-08-06T05:41:09.628Z,63.41
2022-08-06T05:43:59.823Z,60.45
2022-08-06T05:46:28.691Z,58.82
2022-08-06T05:48:56.433Z,60.07
2022-08-06T05:51:44.905Z,62.70
2022-08-06T05:54:28.801Z,62.99
2022-08-06T05:57:04.757Z,60.86
2022-08-06T05:59:54.514Z,59.40
2022-08-06T06:02:24.014Z,62.24
2022-08-06T06:06:03.416Z,63.08
2022-08-06T06:08:09.991Z,61.01
2022-08-06T06:10:33.495Z,60.51
2022-08-06T06:13:03.595Z,60.90
2022-08-06T06:16:01.141Z,60.78
2022-08-06T06:18:34.756Z,60.87
2022-08-06T06:21:31.340Z,59.75
2022-08-06T06:24:03.604Z,60.09
2022-08-06T06:26:51.465Z,63.60
2022-08-06T06:30:05.029Z,62.77
2022-08-06T06:32:35.017Z,61.27
2022-08-06T06:35:14.323Z,59.46
2022-08-06T06:37:51.962Z,61.38
2022-08-06T06:40:29.317Z,63.72
2022-08-06T06:42:57.288Z,63.14
2022-08-06T06:46:06.958Z,62.15
2022-08-06T06:48:42.631Z,60.81
2022-08-06T06:51:40.664Z,59.78
2022-08-06T06:54:09.385Z,60.53
2022-08-06T06:56:51.948Z,59.66
2022-08-06T06:59:26.089Z,60.16
2022-08-06T07:02:15.511Z,63.14
2022-08-06T07:04:47.779Z,62.09
2022-08-06T07:07:23.139Z,61.03
2022-08-06T07:09:53.294Z,61.23
2022-08-06T07:12:22.992Z,61.33
2022-08-06T07:14:58.563Z,61.59
2022-08-06T07:17:45.165Z,60.12
2022-08-06T07:20:20.467Z,59.34
2022-08-06T07:24:03.271Z,61.49
2022-08-06T07:25:54.322Z,63.31
2022-08-06T07:28:29.004Z,61.32
2022-08-06T07:31:46.703Z,60.62
2022-08-06T07:34:29.069Z,60.20
2022-08-06T07:36:57.510Z,60.03
2022-08-06T07:39:31.210Z,58.59
2022-08-06T07:42:12.266Z,61.67
2022-08-06T07:44:55.924Z,62.83
2022-08-06T07:47:55.214Z,61.19
2022-08-06T07:50:25.390Z,59.79
2022-08-06T07:52:55.931Z,58.47
2022-08-06T07:55:36.904Z,61.57
2022-08-06T07:58:09.583Z,62.66
2022-08-06T08:00:42.128Z,60.62
2022-08-06T08:03:55.850Z,58.63
2022-08-06T08:06:26.946Z,61.83
2022-08-06T08:09:05.616Z,63.09
2022-08-06T08:11:37.613Z,61.13
2022-08-06T08:14:23.176Z,59.42
2022-08-06T08:16:51.808Z,60.26
2022-08-06T08:19:23.790Z,62.34
2022-08-06T08:22:01.612Z,61.92
2022-08-06T08:24:30.104Z,60.54
2022-08-06T08:27:12.262Z,59.93
2022-08-06T08:29:54.981Z,60.29
2022-08-06T08:32:29.736Z,62.93
2022-08-06T08:34:59.492Z,62.51
2022-08-06T08:37:31.798Z,61.05
2022-08-06T08:40:04.993Z,59.77
2022-08-06T08:42:56.601Z,59.46
2022-08-06T08:45:33.597Z,61.51
2022-08-06T08:51:49.932Z,60.99
2022-08-06T08:54:20.006Z,60.16
2022-08-06T09:00:40.664Z,62.98
2022-08-06T09:03:08.789Z,61.92
2022-08-06T09:05:47.471Z,62.18
2022-08-06T09:08:18.860Z,62.10
2022-08-06T09:10:48.065Z,62.30
2022-08-06T09:13:22.614Z,61.72
2022-08-06T09:16:01.616Z,61.60
2022-08-06T09:18:30.113Z,61.61
2022-08-06T09:21:00.929Z,61.53
2022-08-06T09:23:29.287Z,61.71
2022-08-06T09:26:06.495Z,62.99
2022-08-06T09:28:42.838Z,63.77
2022-08-06T09:31:21.865Z,64.09
2022-08-06T09:34:29.512Z,64.85
2022-08-06T09:36:45.650Z,63.51
2022-08-06T09:39:15.939Z,63.26
2022-08-06T09:41:52.671Z,63.12
2022-08-06T09:44:37.266Z,63.14
2022-08-06T09:47:07.657Z,62.61
2022-08-06T09:49:58.519Z,63.23
2022-08-06T09:52:29.322Z,63.76
2022-08-06T09:54:57.103Z,65.00
2022-08-06T09:57:42.637Z,66.20
2022-08-06T10:00:14.762Z,66.19
2022-08-06T10:02:51.417Z,66.27
2022-08-06T10:05:22.862Z,66.67
2022-08-06T10:08:03.488Z,66.97
2022-08-06T10:10:45.377Z,65.59
2022-08-06T10:13:26.268Z,65.72
2022-08-06T10:16:03.894Z,65.43
2022-08-06T10:18:55.827Z,64.93
2022-08-06T10:21:33.072Z,64.82
2022-08-06T10:24:12.608Z,66.31
2022-08-06T10:26:42.216Z,67.03
2022-08-06T10:29:11.737Z,68.27
2022-08-06T10:31:42.939Z,66.32
2022-08-06T10:34:12.562Z,65.96
2022-08-06T10:36:44.697Z,65.95
2022-08-06T10:40:08.382Z,65.48
2022-08-06T10:42:16.771Z,65.54
2022-08-06T10:44:59.954Z,65.78
2022-08-06T10:48:59.971Z,66.16
2022-08-06T10:50:38.144Z,66.66
2022-08-06T10:53:59.793Z,66.20
2022-08-06T10:56:05.032Z,64.42
2022-08-06T10:58:37.452Z,63.28
2022-08-06T11:01:08.137Z,64.68
2022-08-06T11:03:46.549Z,64.59
2022-08-06T11:06:46.425Z,63.28
2022-08-06T11:10:01.982Z,63.24
2022-08-06T11:12:25.179Z,64.49
2022-08-06T11:14:53.487Z,64.04
2022-08-06T11:17:22.109Z,64.94
2022-08-06T11:19:57.418Z,66.39
2022-08-06T11:22:39.568Z,65.09
2022-08-06T11:25:37.277Z,65.59
2022-08-06T11:28:08.614Z,64.34
2022-08-06T11:30:37.752Z,64.81
2022-08-06T11:33:06.190Z,66.57
2022-08-06T11:35:36.330Z,67.25
2022-08-06T11:38:39.064Z,67.66
2022-08-06T11:41:44.961Z,68.23
2022-08-06T11:44:07.869Z,68.31
2022-08-06T11:46:47.805Z,67.65
2022-08-06T11:49:21.607Z,68.53
2022-08-06T11:52:04.323Z,68.62
2022-08-06T11:54:59.514Z,66.91
2022-08-06T11:57:41.596Z,67.54
2022-08-06T12:00:16.224Z,68.13
2022-08-06T12:02:54.444Z,68.84
2022-08-06T12:05:25.394Z,69.27
2022-08-06T12:08:14.771Z,70.00
2022-08-06T12:11:08.957Z,69.75
2022-08-06T12:13:42.797Z,70.50
2022-08-06T12:16:30.360Z,68.93
2022-08-06T12:18:58.551Z,68.77
2022-08-06T12:21:27.099Z,68.84
2022-08-06T12:24:05.519Z,69.35
2022-08-06T12:26:36.563Z,69.85
2022-08-06T12:29:06.179Z,68.66
2022-08-06T12:31:44.109Z,68.57
2022-08-06T12:34:35.788Z,68.95
2022-08-06T12:37:03.593Z,69.43
2022-08-06T12:39:59.307Z,68.40
2022-08-06T12:42:51.990Z,68.30
2022-08-06T12:46:04.212Z,66.73
2022-08-06T12:48:11.672Z,67.07
2022-08-06T12:50:41.212Z,68.00
2022-08-06T12:53:11.559Z,68.48
2022-08-06T12:55:46.769Z,68.44
2022-08-06T12:58:41.187Z,67.85
2022-08-06T13:01:16.453Z,67.75
2022-08-06T13:04:06.902Z,65.99
2022-08-06T13:06:37.910Z,65.85
2022-08-06T13:09:08.698Z,65.91
2022-08-06T13:11:41.661Z,65.49
2022-08-06T13:14:18.511Z,66.35
2022-08-06T13:16:57.335Z,66.98
2022-08-06T13:19:33.300Z,67.47
2022-08-06T13:22:12.034Z,68.46
2022-08-06T13:25:03.294Z,69.05
2022-08-06T13:27:35.008Z,67.95
2022-08-06T13:30:33.162Z,68.32
2022-08-06T13:32:54.603Z,68.37
2022-08-06T13:35:27.287Z,68.16
2022-08-06T13:38:15.523Z,68.05
2022-08-06T13:40:57.449Z,68.24
2022-08-06T13:43:42.899Z,68.17
2022-08-06T13:46:33.111Z,67.61
2022-08-06T13:49:04.474Z,67.81
2022-08-06T13:51:49.156Z,67.95
2022-08-06T13:54:23.248Z,67.57
2022-08-06T13:56:56.131Z,67.56
2022-08-06T13:59:41.262Z,67.31
2022-08-06T14:02:11.921Z,66.57
2022-08-06T14:04:40.930Z,67.97
2022-08-06T14:07:17.837Z,67.20
2022-08-06T14:10:08.490Z,65.25
2022-08-06T14:12:34.781Z,65.12
2022-08-06T14:15:02.699Z,66.11
2022-08-06T14:17:34.494Z,66.49
2022-08-06T14:20:15.860Z,66.18
2022-08-06T14:22:48.257Z,66.31
2022-08-06T14:25:17.393Z,65.74
2022-08-06T14:27:45.392Z,65.41
2022-08-06T14:30:28.992Z,63.58
2022-08-06T14:33:10.254Z,64.53
2022-08-06T14:35:50.467Z,65.37
2022-08-06T14:38:20.864Z,65.30
2022-08-06T14:41:09.924Z,66.05
2022-08-06T14:43:57.920Z,66.63
2022-08-06T14:46:27.373Z,66.85
2022-08-06T14:49:09.206Z,66.34
2022-08-06T14:52:20.567Z,64.54
2022-08-06T14:54:32.280Z,65.78
2022-08-06T14:57:09.914Z,65.94
2022-08-06T14:59:48.518Z,65.33
2022-08-06T15:02:26.816Z,64.32
2022-08-06T15:04:55.770Z,64.63
2022-08-06T15:07:25.282Z,64.93
2022-08-06T15:10:03.861Z,64.43
2022-08-06T15:12:42.297Z,65.03
2022-08-06T15:15:15.524Z,65.17
2022-08-06T15:18:05.117Z,64.78
2022-08-06T15:20:32.533Z,64.89
2022-08-06T15:23:01.179Z,64.42
2022-08-06T15:25:44.892Z,63.87
2022-08-06T15:28:17.958Z,65.24
2022-08-06T15:30:47.500Z,63.92
2022-08-06T15:33:16.758Z,62.84
2022-08-06T15:35:58.608Z,62.43
2022-08-06T15:38:27.928Z,60.74
2022-08-06T15:41:00.732Z,58.96
2022-08-06T15:43:43.772Z,58.99
2022-08-06T15:46:14.335Z,63.86
2022-08-06T15:48:47.141Z,63.88
2022-08-06T15:51:30.149Z,61.33
2022-08-06T15:53:59.727Z,59.24
2022-08-06T15:56:33.765Z,56.74
2022-08-06T15:59:12.308Z,59.84
2022-08-06T16:02:01.163Z,61.35
2022-08-06T16:04:32.467Z,62.18
2022-08-06T16:07:05.819Z,58.81
2022-08-06T16:09:56.268Z,57.44
2022-08-06T16:12:23.620Z,61.25
2022-08-06T16:14:56.142Z,63.59
2022-08-06T16:17:33.752Z,63.76
2022-08-06T16:20:20.858Z,59.70
2022-08-06T16:22:52.325Z,59.69
2022-08-06T16:25:22.803Z,57.46
2022-08-06T16:27:52.339Z,58.83
2022-08-06T16:30:21.332Z,60.52
2022-08-06T16:32:49.781Z,64.15
2022-08-06T16:35:21.712Z,63.74
2022-08-06T16:37:55.458Z,61.88
2022-08-06T16:40:24.668Z,60.34
2022-08-06T16:42:53.766Z,58.67
2022-08-06T16:45:23.389Z,61.73
2022-08-06T16:48:03.886Z,63.76
2022-08-06T16:50:43.180Z,63.36
2022-08-06T16:54:14.876Z,61.56
2022-08-06T16:56:00.435Z,60.81
2022-08-06T16:58:33.335Z,59.39
2022-08-06T17:02:13.691Z,59.36
2022-08-06T17:06:42.124Z,63.18
2022-08-06T17:09:16.151Z,61.22
2022-08-06T17:11:57.788Z,60.94
2022-08-06T17:14:28.068Z,60.90
2022-08-06T17:17:00.571Z,60.24
2022-08-06T17:19:29.981Z,58.05
2022-08-06T17:22:01.129Z,56.12
2022-08-06T17:24:32.941Z,56.09
2022-08-06T17:27:08.905Z,61.77
2022-08-06T17:29:45.991Z,65.13
2022-08-06T17:32:27.665Z,63.24
2022-08-06T17:35:01.329Z,62.40
2022-08-06T17:37:43.036Z,61.56
2022-08-06T17:42:30.295Z,63.70
2022-08-06T17:43:12.219Z,57.09
2022-08-06T17:45:52.344Z,57.57
2022-08-06T17:48:30.953Z,58.52
2022-08-06T17:50:59.318Z,59.54
2022-08-06T17:53:53.190Z,65.64
2022-08-06T17:56:30.849Z,64.87
2022-08-06T17:59:16.472Z,62.11
2022-08-06T18:01:50.068Z,62.97
2022-08-06T18:04:30.772Z,61.22
2022-08-06T18:07:12.454Z,59.88
2022-08-06T18:10:16.574Z,60.16
2022-08-06T18:12:49.433Z,57.72
2022-08-06T18:15:19.293Z,57.38
2022-08-06T18:18:04.424Z,59.32
2022-08-06T18:20:38.475Z,60.30
2022-08-06T18:23:21.368Z,60.61
2022-08-06T18:25:57.734Z,58.97
2022-08-06T18:28:34.614Z,58.22
2022-08-06T18:31:09.515Z,59.10
2022-08-06T18:33:46.153Z,59.77
2022-08-06T18:36:15.925Z,69.37
2022-08-06T18:38:45.007Z,73.03
2022-08-06T18:41:15.840Z,70.77
2022-08-06T18:43:54.335Z,67.27
2022-08-06T18:46:56.633Z,65.43
2022-08-06T18:49:20.414Z,64.50
2022-08-06T18:51:57.549Z,62.78
2022-08-06T18:54:26.014Z,61.27
2022-08-06T18:56:56.219Z,60.68
2022-08-06T18:59:28.545Z,59.76
2022-08-06T19:01:59.115Z,58.64
2022-08-06T19:04:29.179Z,56.69
2022-08-06T19:06:59.933Z,56.83
2022-08-06T19:09:34.654Z,58.07
2022-08-06T19:12:12.947Z,58.18
2022-08-06T19:14:44.017Z,58.62
2022-08-06T19:17:17.674Z,59.48
2022-08-06T19:20:26.534Z,58.98
2022-08-06T19:23:02.324Z,58.41
2022-08-06T19:25:52.647Z,59.76
2022-08-06T19:28:35.881Z,59.07
2022-08-06T19:31:07.548Z,62.76
2022-08-06T19:33:39.916Z,71.41
2022-08-06T19:36:31.330Z,72.53
2022-08-06T19:38:56.003Z,69.18
2022-08-06T19:41:55.511Z,67.09
2022-08-06T19:44:25.671Z,65.55
2022-08-06T19:47:02.562Z,63.92
2022-08-06T19:49:41.155Z,62.97
2022-08-06T19:52:09.842Z,61.58
2022-08-06T19:54:42.096Z,60.77
2022-08-06T19:57:13.497Z,60.45
2022-08-06T20:00:53.202Z,58.76
2022-08-06T20:02:50.415Z,56.52
2022-08-06T20:05:21.791Z,57.42
2022-08-06T20:08:10.741Z,56.85
2022-08-06T20:10:41.172Z,59.11
2022-08-06T20:13:10.184Z,59.30
2022-08-06T20:15:46.553Z,67.10
2022-08-06T20:18:15.661Z,69.23
2022-08-06T20:20:43.756Z,66.45
2022-08-06T20:23:16.810Z,66.20
2022-08-06T20:26:15.321Z,63.69
2022-08-06T20:29:08.729Z,62.02
2022-08-06T20:31:23.045Z,61.04
2022-08-06T20:33:59.107Z,60.34
2022-08-06T20:36:29.802Z,59.70
2022-08-06T20:38:58.320Z,58.86
2022-08-06T20:42:04.846Z,56.82
2022-08-06T20:44:17.973Z,57.76
2022-08-06T20:47:46.481Z,57.41
2022-08-06T20:50:03.414Z,58.48
2022-08-06T20:52:24.728Z,58.24
2022-08-06T20:54:56.833Z,59.26
2022-08-06T20:57:27.511Z,59.17
2022-08-06T20:59:58.220Z,58.85
2022-08-06T21:02:32.559Z,59.84
2022-08-06T21:05:13.094Z,59.59
2022-08-06T21:07:56.894Z,65.03
2022-08-06T21:10:30.331Z,71.80
2022-08-06T21:13:02.682Z,69.79
2022-08-06T21:15:54.382Z,68.24
2022-08-06T21:37:42.469Z,71.43
2022-08-06T21:40:15.244Z,69.79
2022-08-06T21:42:57.238Z,65.68
2022-08-06T21:45:26.596Z,63.62
2022-08-06T21:48:14.893Z,63.04
2022-08-06T21:50:56.337Z,59.14
2022-08-06T21:53:53.154Z,58.80
2022-08-06T21:56:36.818Z,60.10
2022-08-06T21:59:10.045Z,62.45
2022-08-06T22:02:10.953Z,64.89
2022-08-06T22:04:34.660Z,61.17
2022-08-06T22:07:07.888Z,57.41
2022-08-06T22:09:42.803Z,58.82
2022-08-06T22:12:40.185Z,58.52
2022-08-06T22:14:59.258Z,59.23
2022-08-06T22:17:34.494Z,63.68
2022-08-06T22:20:21.517Z,63.58
2022-08-06T22:22:55.487Z,59.01
2022-08-06T22:25:24.914Z,56.37
2022-08-06T22:27:55.741Z,59.84
2022-08-06T22:30:36.943Z,60.79
2022-08-06T22:33:14.607Z,63.33
2022-08-06T22:35:57.501Z,61.97
2022-08-06T22:38:32.398Z,57.98
2022-08-06T22:41:00.637Z,58.23
2022-08-06T22:43:46.411Z,60.40
2022-08-06T22:46:17.363Z,62.68
2022-08-06T22:48:47.282Z,63.37
2022-08-06T22:51:28.514Z,61.20
2022-08-06T22:54:29.524Z,57.84
2022-08-06T22:57:05.060Z,58.91
2022-08-06T23:00:11.918Z,61.37
2022-08-06T23:02:23.397Z,63.14
2022-08-06T23:04:52.868Z,61.54
2022-08-06T23:07:25.638Z,58.24
2022-08-06T23:09:58.569Z,58.53
2022-08-06T23:12:36.483Z,58.43
2022-08-06T23:15:30.321Z,62.51
2022-08-06T23:18:00.656Z,64.11
2022-08-06T23:20:32.982Z,61.69
2022-08-06T23:23:04.673Z,58.70
2022-08-06T23:26:00.135Z,58.85
2022-08-06T23:28:22.791Z,61.50
2022-08-06T23:30:52.339Z,63.10
2022-08-06T23:33:20.325Z,63.51
2022-08-06T23:35:48.307Z,59.28
2022-08-06T23:38:33.502Z,56.90
2022-08-06T23:41:05.339Z,59.13
2022-08-06T23:43:44.116Z,62.75
2022-08-06T23:46:12.307Z,63.39
2022-08-06T23:48:51.530Z,59.15
2022-08-06T23:52:01.451Z,57.16
2022-08-06T23:54:16.038Z,59.49
2022-08-06T23:56:57.652Z,61.66
2022-08-06T23:59:44.870Z,63.07
